createdAt,value
2019-02-05T01:23:27.257Z,13.03
2019-02-05T01:25:56.734Z,10.83
2019-02-05T01:28:25.451Z,10.33
2019-02-05T01:30:55.995Z,10.93
2019-02-05T01:33:24.532Z,11.00
2019-02-05T01:35:53.626Z,11.83
2019-02-05T01:38:22.446Z,11.30
2019-02-05T01:40:51.131Z,10.53
2019-02-05T01:43:20.003Z,11.50
2019-02-05T01:45:48.786Z,9.87
2019-02-05T01:48:17.473Z,10.87
2019-02-05T01:50:46.762Z,8.33
2019-02-05T01:53:15.780Z,11.27
2019-02-05T01:55:44.653Z,14.73
2019-02-05T01:58:13.438Z,9.73
2019-02-05T02:00:42.235Z,11.43
2019-02-05T02:03:11.054Z,13.03
2019-02-05T02:05:40.343Z,15.37
2019-02-05T02:08:09.334Z,14.87
2019-02-05T02:10:38.346Z,13.63
2019-02-05T02:13:07.194Z,12.00
2019-02-05T02:15:36.111Z,14.20
2019-02-05T02:18:05.006Z,11.20
2019-02-05T02:20:33.890Z,13.30
2019-02-05T02:23:04.214Z,11.17
2019-02-05T02:25:32.980Z,13.57
2019-02-05T02:28:01.903Z,13.73
2019-02-05T02:30:33.633Z,13.80
2019-02-05T02:33:02.417Z,12.57
2019-02-05T02:35:31.332Z,13.80
2019-02-05T02:38:00.476Z,11.07
2019-02-05T02:40:29.395Z,12.63
2019-02-05T02:42:58.207Z,19.87
2019-02-05T02:45:27.960Z,15.10
2019-02-05T02:47:56.909Z,15.83
2019-02-05T02:50:25.804Z,12.87
2019-02-05T02:52:54.695Z,15.20
2019-02-05T02:55:23.594Z,13.43
2019-02-05T02:57:55.344Z,12.63
2019-02-05T03:00:24.435Z,13.80
2019-02-05T03:02:53.294Z,13.00
2019-02-05T03:05:24.487Z,11.07
2019-02-05T03:07:53.561Z,13.33
2019-02-05T03:10:27.161Z,11.70
2019-02-05T03:12:58.204Z,13.07
2019-02-05T03:15:27.288Z,14.70
2019-02-05T03:17:58.052Z,15.03
2019-02-05T03:20:26.504Z,13.17
2019-02-05T03:22:55.791Z,13.83
2019-02-05T03:25:26.527Z,14.03
2019-02-05T03:27:55.467Z,14.83
2019-02-05T03:30:27.338Z,11.23
2019-02-05T03:32:56.915Z,13.80
2019-02-05T03:35:25.784Z,16.27
2019-02-05T03:37:55.568Z,12.87
2019-02-05T03:40:32.028Z,17.67
2019-02-05T03:43:01.708Z,14.00
2019-02-05T03:45:31.783Z,14.60
2019-02-05T03:48:05.072Z,14.67
2019-02-05T03:50:48.628Z,17.63
2019-02-05T03:53:36.777Z,16.27
2019-02-05T03:56:11.265Z,15.10
2019-02-05T03:58:43.027Z,17.97
2019-02-05T04:01:20.471Z,15.90
2019-02-05T04:04:07.291Z,16.90
2019-02-05T04:06:59.796Z,12.53
2019-02-05T04:09:46.885Z,16.23
2019-02-05T04:12:24.686Z,15.57
2019-02-05T04:15:02.693Z,17.23
2019-02-05T04:17:43.386Z,20.27
2019-02-05T04:20:17.907Z,13.23
2019-02-05T04:23:07.844Z,15.10
2019-02-05T04:25:43.437Z,18.57
2019-02-05T04:28:34.932Z,14.97
2019-02-05T04:31:27.915Z,14.93
2019-02-05T04:34:16.162Z,18.03
2019-02-05T04:37:04.784Z,20.33
2019-02-05T04:39:45.551Z,15.53
2019-02-05T04:42:21.779Z,16.87
2019-02-05T04:45:17.982Z,14.27
2019-02-05T04:48:10.388Z,16.00
2019-02-05T04:50:54.146Z,17.07
2019-02-05T04:53:28.780Z,17.30
2019-02-05T04:56:03.201Z,18.53
2019-02-05T04:58:47.051Z,18.03
2019-02-05T05:01:21.463Z,17.63
2019-02-05T05:04:11.241Z,19.67
2019-02-05T05:07:01.197Z,16.03
2019-02-05T05:09:52.442Z,13.63
2019-02-05T05:12:21.947Z,15.43
2019-02-05T05:14:50.812Z,14.67
2019-02-05T05:17:19.627Z,16.93
2019-02-05T05:19:48.489Z,15.13
2019-02-05T05:22:20.519Z,17.83
2019-02-05T05:24:49.570Z,19.30
2019-02-05T05:27:19.486Z,16.67
2019-02-05T05:29:50.528Z,17.27
2019-02-05T05:32:19.521Z,16.50
2019-02-05T05:34:48.409Z,16.00
2019-02-05T05:37:16.008Z,14.07
2019-02-05T05:40:24.395Z,17.27
2019-02-05T05:42:54.451Z,14.50
2019-02-05T05:45:23.277Z,19.63
2019-02-05T05:47:56.234Z,19.70
2019-02-05T05:50:22.613Z,21.03
2019-02-05T05:52:54.548Z,24.20
2019-02-05T05:55:23.463Z,17.20
2019-02-05T05:57:53.680Z,19.67
2019-02-05T06:00:24.529Z,18.13
2019-02-05T06:02:53.413Z,18.63
2019-02-05T06:05:22.176Z,20.77
2019-02-05T06:07:51.909Z,18.93
2019-02-05T06:10:22.488Z,20.83
2019-02-05T06:12:51.533Z,23.07
2019-02-05T06:15:20.427Z,21.43
2019-02-05T06:17:49.421Z,24.83
2019-02-05T06:20:19.828Z,22.50
2019-02-05T06:22:49.046Z,24.73
2019-02-05T06:25:17.821Z,24.13
2019-02-05T06:27:46.691Z,19.33
2019-02-05T06:30:17.352Z,17.13
2019-02-05T06:32:46.347Z,21.87
2019-02-05T06:35:16.928Z,19.20
2019-02-05T06:37:46.569Z,21.73
2019-02-05T06:40:18.448Z,22.20
2019-02-05T06:42:49.590Z,20.40
2019-02-05T06:45:18.313Z,22.80
2019-02-05T06:47:47.583Z,19.20
2019-02-05T06:50:17.034Z,19.67
2019-02-05T06:52:46.792Z,19.37
2019-02-05T06:55:16.863Z,23.10
2019-02-05T06:57:45.596Z,21.93
2019-02-05T07:00:24.077Z,16.53
2019-02-05T07:02:55.221Z,21.17
2019-02-05T07:05:23.848Z,20.20
2019-02-05T07:07:53.138Z,19.17
2019-02-05T07:10:27.743Z,19.97
2019-02-05T07:12:56.521Z,19.17
2019-02-05T07:15:25.348Z,21.10
2019-02-05T07:17:55.960Z,22.17
2019-02-05T07:20:26.487Z,18.93
2019-02-05T07:22:55.891Z,17.83
2019-02-05T07:25:25.411Z,21.63
2019-02-05T07:27:57.585Z,17.80
2019-02-05T07:30:27.467Z,19.93
2019-02-05T07:32:56.193Z,20.60
2019-02-05T07:35:24.992Z,21.90
2019-02-05T07:37:56.772Z,19.97
2019-02-05T07:40:25.736Z,17.83
2019-02-05T07:42:54.362Z,22.60
2019-02-05T07:45:26.559Z,21.07
2019-02-05T07:47:59.728Z,18.07
2019-02-05T07:50:29.680Z,20.77
2019-02-05T07:53:01.030Z,19.03
2019-02-05T07:55:32.736Z,20.60
2019-02-05T07:58:01.665Z,16.37
2019-02-05T08:00:32.087Z,20.30
2019-02-05T08:03:01.148Z,24.53
2019-02-05T08:05:34.596Z,25.77
2019-02-05T08:08:06.702Z,24.33
2019-02-05T08:10:35.403Z,20.43
2019-02-05T08:13:04.336Z,20.47
2019-02-05T08:15:34.643Z,15.80
2019-02-05T08:18:06.819Z,19.50
2019-02-05T08:20:36.933Z,16.77
2019-02-05T08:23:05.671Z,20.47
2019-02-05T08:25:34.345Z,20.53
2019-02-05T08:28:04.029Z,19.37
2019-02-05T08:30:38.616Z,21.07
2019-02-05T08:33:07.621Z,19.30
2019-02-05T08:35:36.384Z,19.77
2019-02-05T08:38:05.445Z,19.77
2019-02-05T08:40:34.155Z,19.07
2019-02-05T08:43:04.766Z,20.07
2019-02-05T08:45:35.894Z,23.30
2019-02-05T08:48:06.223Z,20.13
2019-02-05T08:50:34.927Z,22.07
2019-02-05T08:53:03.755Z,19.07
2019-02-05T08:55:32.467Z,20.60
2019-02-05T08:58:12.233Z,25.00
2019-02-05T09:00:42.361Z,17.93
2019-02-05T09:03:16.775Z,18.53
2019-02-05T09:05:45.450Z,19.47
2019-02-05T09:08:15.798Z,16.43
2019-02-05T09:10:44.643Z,20.93
2019-02-05T09:13:14.801Z,22.27
2019-02-05T09:15:43.700Z,17.90
2019-02-05T09:18:12.831Z,19.07
2019-02-05T09:20:41.594Z,17.63
2019-02-05T09:23:10.298Z,20.23
2019-02-05T09:25:40.743Z,21.50
2019-02-05T09:28:09.622Z,21.10
2019-02-05T09:30:42.219Z,18.27
2019-02-05T09:33:13.999Z,16.97
2019-02-05T09:35:43.031Z,20.53
2019-02-05T09:38:12.043Z,21.90
2019-02-05T09:40:41.144Z,19.80
2019-02-05T09:43:10.195Z,21.47
2019-02-05T09:45:40.682Z,19.87
2019-02-05T09:48:09.616Z,17.47
2019-02-05T09:50:44.611Z,16.53
2019-02-05T09:53:08.733Z,17.77
2019-02-05T09:55:37.708Z,18.80
2019-02-05T09:58:06.503Z,19.30
2019-02-05T10:00:38.396Z,18.33
2019-02-05T10:03:09.916Z,20.67
2019-02-05T10:05:40.916Z,19.27
2019-02-05T10:08:09.619Z,17.03
2019-02-05T10:10:43.171Z,15.57
2019-02-05T10:13:13.560Z,16.73
2019-02-05T10:15:50.208Z,19.60
2019-02-05T10:18:19.168Z,18.10
2019-02-05T10:20:48.146Z,15.37
2019-02-05T10:23:20.694Z,17.87
2019-02-05T10:25:50.947Z,18.03
2019-02-05T10:28:26.071Z,20.33
2019-02-05T10:30:57.324Z,15.63
2019-02-05T10:33:27.001Z,15.20
2019-02-05T10:35:55.897Z,15.83
2019-02-05T10:38:24.640Z,18.07
2019-02-05T10:40:53.353Z,16.53
2019-02-05T10:43:22.182Z,16.70
2019-02-05T10:45:51.230Z,17.87
2019-02-05T10:48:19.938Z,18.47
2019-02-05T10:50:56.098Z,17.13
2019-02-05T10:53:26.268Z,19.80
2019-02-05T10:55:56.848Z,17.57
2019-02-05T10:58:31.895Z,15.23
2019-02-05T11:01:00.829Z,18.20
2019-02-05T11:03:29.834Z,17.00
2019-02-05T11:05:58.832Z,15.70
2019-02-05T11:08:27.617Z,17.17
2019-02-05T11:10:56.272Z,15.97
2019-02-05T11:13:27.929Z,15.23
2019-02-05T11:15:56.879Z,18.77
2019-02-05T11:18:25.687Z,15.70
2019-02-05T11:20:54.704Z,19.77
2019-02-05T11:23:23.414Z,15.40
2019-02-05T11:25:52.505Z,17.37
2019-02-05T11:28:21.183Z,17.33
2019-02-05T11:30:49.904Z,18.17
2019-02-05T11:33:22.849Z,15.87
2019-02-05T11:35:52.450Z,15.93
2019-02-05T11:38:21.163Z,20.67
2019-02-05T11:40:49.885Z,21.23
2019-02-05T11:43:18.580Z,16.77
2019-02-05T11:45:47.296Z,17.23
2019-02-05T11:51:23.567Z,16.83
2019-02-05T11:53:51.865Z,18.77
2019-02-05T11:56:20.772Z,16.93
2019-02-05T11:58:50.347Z,17.17
2019-02-05T12:01:18.971Z,15.63
2019-02-05T12:03:48.289Z,18.33
2019-02-05T12:06:17.068Z,16.30
2019-02-05T12:08:48.851Z,18.03
2019-02-05T12:11:17.505Z,16.10
2019-02-05T12:13:46.479Z,17.27
2019-02-05T12:16:15.227Z,18.17
2019-02-05T12:18:43.954Z,17.93
2019-02-05T12:21:14.316Z,15.70
2019-02-05T12:23:44.473Z,16.07
2019-02-05T12:26:13.624Z,28.10
2019-02-05T12:28:42.354Z,16.43
2019-02-05T12:31:11.567Z,19.10
2019-02-05T12:33:40.152Z,21.50
2019-02-05T12:36:10.607Z,21.93
2019-02-05T12:38:43.402Z,18.67
2019-02-05T12:41:19.224Z,22.53
2019-02-05T12:43:44.626Z,18.57
2019-02-05T12:46:16.391Z,15.43
2019-02-05T12:48:45.292Z,16.43
2019-02-05T12:51:14.252Z,18.53
2019-02-05T12:53:44.884Z,17.27
2019-02-05T12:56:13.758Z,15.47
2019-02-05T12:58:44.076Z,17.53
2019-02-05T13:01:13.298Z,19.90
2019-02-05T13:03:45.207Z,16.13
2019-02-05T13:06:13.920Z,14.87
2019-02-05T13:08:42.628Z,16.43
2019-02-05T13:11:14.962Z,37.47
2019-02-05T13:13:44.606Z,16.40
2019-02-05T13:18:51.996Z,16.37
2019-02-05T13:21:23.444Z,15.77
2019-02-05T13:23:52.282Z,13.50
2019-02-05T13:26:21.818Z,16.50
2019-02-05T13:28:50.663Z,16.30
2019-02-05T13:31:19.385Z,19.43
2019-02-05T13:33:49.657Z,15.37
2019-02-05T13:36:18.301Z,21.40
2019-02-05T13:38:48.698Z,15.43
2019-02-05T13:41:18.897Z,15.73
2019-02-05T13:43:47.611Z,17.63
2019-02-05T13:46:18.703Z,16.23
2019-02-05T13:48:50.354Z,17.37
2019-02-05T13:51:19.065Z,16.73
2019-02-05T13:53:47.641Z,18.93
2019-02-05T13:56:16.649Z,15.23
2019-02-05T13:58:51.499Z,29.67
2019-02-05T14:01:24.198Z,22.67
2019-02-05T14:03:55.006Z,17.23
2019-02-05T14:06:23.381Z,40.77
2019-02-05T14:08:52.649Z,29.60
2019-02-05T14:11:23.740Z,36.20
2019-02-05T14:13:52.447Z,35.27
2019-02-05T14:16:21.393Z,38.57
2019-02-05T14:18:55.519Z,27.10
2019-02-05T14:21:20.506Z,17.73
2019-02-05T14:23:52.418Z,23.37
2019-02-05T14:26:34.781Z,19.93
2019-02-05T14:29:12.157Z,34.90
2019-02-05T14:31:41.307Z,20.80
2019-02-05T14:34:10.487Z,19.30
2019-02-05T14:36:44.939Z,21.67
2019-02-05T14:39:24.119Z,21.17
2019-02-05T14:41:47.375Z,21.90
2019-02-05T14:44:16.105Z,22.70
2019-02-05T14:46:44.822Z,24.60
2019-02-05T14:49:14.101Z,22.10
2019-02-05T14:51:45.402Z,21.43
2019-02-05T14:54:14.216Z,23.57
2019-02-05T14:57:07.721Z,19.03
2019-02-05T14:59:42.645Z,18.67
2019-02-05T15:02:20.637Z,23.23
2019-02-05T15:05:03.894Z,23.70
2019-02-05T15:07:36.983Z,22.13
2019-02-05T15:10:14.339Z,20.80
2019-02-05T15:15:27.237Z,20.80
2019-02-05T15:17:58.984Z,21.03
2019-02-05T15:20:43.175Z,21.43
2019-02-05T15:23:10.623Z,32.33
2019-02-05T15:25:42.565Z,26.47
2019-02-05T15:28:18.706Z,21.43
2019-02-05T15:30:49.310Z,21.37
2019-02-05T15:33:34.707Z,25.17
2019-02-05T15:36:22.658Z,18.33
2019-02-05T15:38:54.307Z,19.93
2019-02-05T15:41:27.197Z,22.43
2019-02-05T15:44:00.688Z,23.73
2019-02-05T15:46:33.681Z,20.47
2019-02-05T15:49:10.190Z,21.13
2019-02-05T15:51:39.190Z,25.70
2019-02-05T15:54:21.946Z,21.60
2019-02-05T15:56:42.964Z,23.43
2019-02-05T15:59:13.524Z,20.63
2019-02-05T16:02:05.562Z,24.43
2019-02-05T16:04:27.728Z,20.23
2019-02-05T16:06:56.373Z,24.10
2019-02-05T16:09:25.052Z,20.80
2019-02-05T16:11:54.166Z,20.70
2019-02-05T16:14:23.462Z,21.93
2019-02-05T16:16:52.592Z,22.63
2019-02-05T16:19:21.237Z,22.83
2019-02-05T16:21:54.438Z,26.30
2019-02-05T16:24:23.372Z,17.70
2019-02-05T16:26:52.382Z,20.63
2019-02-05T16:32:01.307Z,21.13
2019-02-05T16:34:37.626Z,20.43
2019-02-05T16:37:07.345Z,20.43
2019-02-05T16:39:36.270Z,21.50
2019-02-05T16:42:05.691Z,32.67
2019-02-05T16:44:34.367Z,21.57
2019-02-05T16:47:04.247Z,23.80
2019-02-05T16:49:34.335Z,21.10
2019-02-05T16:52:05.667Z,24.00
2019-02-05T16:54:40.565Z,25.93
2019-02-05T16:57:12.945Z,22.57
2019-02-05T16:59:42.622Z,23.83
2019-02-05T17:02:11.345Z,23.30
2019-02-05T17:04:42.817Z,22.97
2019-02-05T17:07:11.566Z,24.93
2019-02-05T17:09:44.952Z,24.47
2019-02-05T17:12:13.834Z,25.63
2019-02-05T17:14:55.296Z,22.80
2019-02-05T17:17:32.191Z,20.30
2019-02-05T17:20:02.691Z,26.10
2019-02-05T17:22:31.593Z,26.40
2019-02-05T17:25:09.168Z,26.20
2019-02-05T17:27:37.108Z,24.67
2019-02-05T17:30:16.875Z,21.63
2019-02-05T17:32:45.583Z,24.53
2019-02-05T17:35:21.292Z,22.87
2019-02-05T17:38:00.567Z,22.90
2019-02-05T17:40:32.581Z,22.93
2019-02-05T17:43:05.437Z,20.53
2019-02-05T17:45:39.413Z,23.97
2019-02-05T17:48:14.637Z,24.30
2019-02-05T17:50:44.187Z,21.17
2019-02-05T17:53:14.622Z,22.73
2019-02-05T17:55:49.704Z,23.93
2019-02-05T17:58:21.714Z,26.63
2019-02-05T18:00:53.213Z,21.90
2019-02-05T18:03:31.464Z,20.97
2019-02-05T18:06:00.637Z,27.13
2019-02-05T18:08:30.899Z,23.20
2019-02-05T18:11:01.835Z,22.27
2019-02-05T18:13:33.278Z,24.13
2019-02-05T18:16:10.119Z,22.23
2019-02-05T18:18:41.083Z,25.00
2019-02-05T18:21:13.278Z,21.83
2019-02-05T18:23:47.359Z,26.47
2019-02-05T18:26:16.638Z,24.53
2019-02-05T18:28:51.398Z,24.07
2019-02-05T18:31:25.029Z,25.13
2019-02-05T18:34:10.423Z,24.07
2019-02-05T18:36:47.100Z,29.83
2019-02-05T18:39:30.842Z,24.30
2019-02-05T18:42:00.241Z,24.40
2019-02-05T18:44:32.343Z,26.00
2019-02-05T18:47:01.412Z,24.07
2019-02-05T18:49:33.659Z,24.57
2019-02-05T18:52:05.171Z,23.30
2019-02-05T18:54:40.321Z,21.90
2019-02-05T18:57:17.204Z,27.83
2019-02-05T18:59:49.249Z,22.30
2019-02-05T19:02:21.229Z,29.90
2019-02-05T19:04:55.777Z,25.67
2019-02-05T19:07:24.661Z,22.97
2019-02-05T19:10:02.533Z,28.03
2019-02-05T19:12:33.175Z,31.43
2019-02-05T19:15:13.260Z,26.53
2019-02-05T19:17:45.192Z,26.77
2019-02-05T19:20:19.855Z,30.93
2019-02-05T19:22:49.229Z,27.90
2019-02-05T19:25:38.752Z,25.73
2019-02-05T19:28:12.279Z,36.23
2019-02-05T19:33:26.844Z,29.27
2019-02-05T19:35:54.655Z,28.70
2019-02-05T19:38:31.211Z,27.87
2019-02-05T19:41:02.642Z,29.93
2019-02-05T19:43:45.295Z,27.43
2019-02-05T19:46:35.129Z,27.73
2019-02-05T19:49:06.337Z,31.87
2019-02-05T19:51:42.117Z,28.63
2019-02-05T19:54:31.564Z,27.43
2019-02-05T19:57:03.787Z,35.50
2019-02-05T19:59:37.510Z,33.27
2019-02-05T20:02:15.465Z,29.20
2019-02-05T20:04:45.648Z,29.50
2019-02-05T20:07:16.759Z,25.70
2019-02-05T20:09:49.895Z,35.23
2019-02-05T20:12:28.081Z,28.37
2019-02-05T20:15:00.744Z,32.57
2019-02-05T20:17:43.514Z,36.30
2019-02-05T20:20:22.041Z,33.93
2019-02-05T20:22:51.252Z,28.83
2019-02-05T20:25:24.888Z,32.50
2019-02-05T20:27:53.406Z,33.00
2019-02-05T20:30:27.469Z,31.33
2019-02-05T20:33:05.032Z,35.57
2019-02-05T20:35:38.723Z,36.03
2019-02-05T20:38:09.771Z,29.97
2019-02-05T20:40:50.744Z,31.83
2019-02-05T20:43:22.610Z,32.80
2019-02-05T20:45:53.828Z,36.77
2019-02-05T20:48:25.768Z,33.03
2019-02-05T20:50:55.708Z,33.07
2019-02-05T20:53:26.828Z,31.40
2019-02-05T20:55:58.886Z,32.93
2019-02-05T20:58:33.345Z,32.90
2019-02-05T21:01:06.777Z,32.20
2019-02-05T21:03:36.408Z,33.53
2019-02-05T21:06:11.512Z,33.07
2019-02-05T21:08:46.732Z,32.03
2019-02-05T21:11:16.801Z,35.70
2019-02-05T21:13:51.984Z,29.63
2019-02-05T21:16:25.334Z,36.60
2019-02-05T21:18:57.622Z,30.83
2019-02-05T21:21:30.224Z,29.90
2019-02-05T21:24:02.721Z,32.60
2019-02-05T21:26:34.502Z,35.60
2019-02-05T21:29:06.635Z,30.87
2019-02-05T21:31:36.106Z,32.83
2019-02-05T21:34:15.474Z,32.33
2019-02-05T21:36:41.654Z,31.67
2019-02-05T21:39:11.251Z,33.00
2019-02-05T21:41:41.610Z,39.57
2019-02-05T21:44:12.197Z,37.10
2019-02-05T21:46:43.755Z,35.73
2019-02-05T21:49:16.689Z,29.87
2019-02-05T21:51:46.244Z,34.30
2019-02-05T21:54:20.958Z,35.83
2019-02-05T21:56:47.381Z,34.87
2019-02-05T21:59:16.110Z,35.23
2019-02-05T22:01:47.967Z,38.20
2019-02-05T22:04:26.645Z,37.90
2019-02-05T22:06:49.809Z,33.77
2019-02-05T22:09:18.553Z,34.43
2019-02-05T22:11:47.209Z,39.07
2019-02-05T22:14:25.708Z,33.47
2019-02-05T22:16:56.442Z,38.33
2019-02-05T22:19:36.478Z,39.97
2019-02-05T22:22:07.762Z,41.07
2019-02-05T22:24:39.345Z,36.77
2019-02-05T22:27:13.178Z,36.07
2019-02-05T22:29:46.476Z,37.80
2019-02-05T22:32:17.186Z,36.10
2019-02-05T22:34:53.251Z,44.17
2019-02-05T22:37:26.422Z,37.50
2019-02-05T22:39:55.020Z,35.37
2019-02-05T22:42:25.253Z,42.70
2019-02-05T22:44:57.231Z,45.23
2019-02-05T22:47:29.536Z,40.87
2019-02-05T22:50:06.897Z,42.60
2019-02-05T22:52:38.840Z,35.93
2019-02-05T22:55:18.737Z,36.00
2019-02-05T22:57:49.090Z,39.27
2019-02-05T23:00:34.721Z,40.30
2019-02-05T23:03:06.644Z,39.50
2019-02-05T23:06:02.566Z,35.37
2019-02-05T23:08:32.758Z,37.63
2019-02-05T23:11:10.249Z,35.20
2019-02-05T23:13:40.432Z,37.07
2019-02-05T23:16:11.097Z,34.13
2019-02-05T23:18:40.179Z,30.70
2019-02-05T23:21:11.006Z,29.87
2019-02-05T23:23:39.754Z,33.10
2019-02-05T23:26:11.331Z,34.07
2019-02-05T23:28:40.043Z,35.20
2019-02-05T23:31:08.761Z,32.07
2019-02-05T23:33:37.490Z,33.30
2019-02-05T23:36:06.341Z,28.87
2019-02-05T23:38:35.048Z,33.87
2019-02-05T23:41:05.148Z,35.37
2019-02-05T23:43:37.222Z,32.70
2019-02-05T23:46:07.652Z,32.93
2019-02-05T23:48:36.388Z,29.50
2019-02-05T23:51:07.922Z,28.87
2019-02-05T23:53:36.639Z,33.83
2019-02-05T23:56:06.841Z,33.03
2019-02-05T23:58:36.884Z,31.93
